Currently 54°F in French Valley, California, USA
54°F
55°F / 54°F
calm
0.00"
Monday, April 12, 2021 6:33 AM PDT

French Valley, California Weather Summary
Last 36 Hours

Temperature Winds Hourly Humidity Dewpoint
Time Report Norm Report Norm Max Gusts Precip. Rpt. Norm Rpt. Norm Pressure
1Mon 06:33 AM  54.3°F  50°F  calm  1 mph  none  0.00"  99%  86%  54°F  45°F  29.88"
3Mon 06:13 AM  54.2°F  50°F  calm  1 mph  none  ----  99%  86%  54°F  45°F  29.88"
Mon 06:00 AM  54.2°F  50°F  calm  1 mph  none  0.00"  99%  86%  54°F  46°F  29.88"
Mon 05:00 AM  54.4°F  50°F  calm  1 mph  none  0.00"  98%  85%  54°F  46°F  29.88"
Mon 04:00 AM  54.8°F  51°F  calm  1 mph  none  0.00"  98%  85%  54°F  46°F  29.87"
Mon 03:00 AM  54.9°F  52°F  calm  1 mph  none  0.00"  98%  85%  54°F  47°F  29.87"
Mon 02:00 AM  55.2°F  52°F  calm  1 mph  none  0.00"  98%  84%  55°F  48°F  29.88"
2Mon 01:58 AM  55.3°F  52°F  calm  1 mph  none  ----  98%  84%  55°F  48°F  29.88"
Mon 01:00 AM  55.2°F  53°F  calm  1 mph  none  0.00"  98%  83%  55°F  48°F  29.89"
Mon 12:00 AM  55.3°F  54°F  calm  2 mph  none  0.00"  98%  81%  55°F  48°F  29.90"
Sun 11:00 PM  55.2°F  55°F  calm  2 mph  none  0.00"  98%  80%  55°F  49°F  29.89"
Sun 10:00 PM  55.7°F  57°F  calm  2 mph  none  0.00"  98%  77%  55°F  49°F  29.88"
Sun 09:00 PM  55.3°F  58°F  calm  3 mph  none  0.00"  97%  73%  54°F  49°F  29.85"
Sun 08:00 PM  59.2°F  60°F  calm  4 mph  none  0.00"  86%  68%  55°F  49°F  29.82"
Sun 07:00 PM  63.8°F  64°F  calm  5 mph  none  0.00"  68%  60%  53°F  49°F  29.80"
Sun 06:00 PM  69.6°F  67°F  calm  7 mph  none  0.00"  65%  53%  57°F  49°F  29.78"
Sun 05:00 PM  74.4°F  69°F  calm  8 mph  none  0.00"  51%  48%  54°F  48°F  29.78"
Sun 04:00 PM  73.6°F  71°F  calm  7 mph  none  0.00"  53%  46%  55°F  48°F  29.79"
Sun 03:00 PM  73.2°F  71°F  calm  6 mph  none  0.00"  58%  44%  57°F  48°F  29.82"
Sun 02:00 PM  71.5°F  71°F  calm  5 mph  none  0.00"  60%  44%  57°F  47°F  29.84"
Sun 01:00 PM  71.1°F  70°F  calm  5 mph  none  0.00"  62%  45%  57°F  47°F  29.86"
Sun 12:00 PM  72.9°F  68°F  calm  5 mph  none  0.00"  50%  49%  52°F  47°F  29.88"
Sun 11:00 AM  68.1°F  65°F  calm  4 mph  none  0.00"  65%  55%  56°F  48°F  29.90"
Sun 10:00 AM  63.1°F  61°F  calm  3 mph  none  0.00"  81%  64%  57°F  49°F  29.90"
Sun 09:00 AM  58.3°F  57°F  calm  2 mph  none  0.00"  95%  75%  57°F  49°F  29.90"
Sun 08:00 AM  54.4°F  53°F  calm  2 mph  none  0.00"  98%  83%  54°F  48°F  29.92"
Sun 07:00 AM  51.1°F  50°F  calm  1 mph  none  0.00"  99%  86%  51°F  46°F  29.91"
Sun 06:00 AM  50.8°F  50°F  calm  1 mph  none  0.00"  98%  87%  50°F  46°F  29.90"
Sun 05:00 AM  51.0°F  50°F  calm  1 mph  none  0.00"  98%  86%  50°F  46°F  29.88"
Sun 04:00 AM  52.4°F  51°F  calm  1 mph  none  0.00"  98%  86%  52°F  47°F  29.87"
Sun 03:00 AM  53.3°F  52°F  calm  1 mph  none  0.00"  98%  86%  53°F  47°F  29.87"
Sun 02:00 AM  53.8°F  52°F  calm  1 mph  none  0.00"  97%  85%  53°F  48°F  29.90"
Sun 01:00 AM  54.3°F  53°F  calm  1 mph  none  0.00"  97%  84%  53°F  48°F  29.91"
Sun 12:00 AM  55.4°F  54°F  calm  2 mph  none  0.00"  96%  82%  54°F  49°F  29.93"
Sat 11:00 PM  56.8°F  55°F  calm  2 mph  none  0.00"  95%  81%  55°F  49°F  29.94"
Sat 10:00 PM  58.7°F  56°F  calm  3 mph  none  0.00"  90%  79%  56°F  50°F  29.94"
Sat 09:00 PM  59.0°F  58°F  calm  3 mph  none  0.00"  88%  75%  55°F  50°F  29.93"
Sat 08:00 PM  61.4°F  60°F  calm  4 mph  none  0.00"  85%  70%  57°F  50°F  29.90"
Sat 07:00 PM  64.9°F  63°F  calm  5 mph  none  0.00"  74%  62%  56°F  50°F  29.88"

  1. Current weather data. No green row appears if the current weather data is also the high or low for the current day.
  2. High temperature for the current day.
  3. Low temperature for the current day.

The French Valley, California weather pages are a service of WeatherCurrents. French Valley is located in southwestern Riverside County, California, north of Temecula, east of Murrieta, and south of Winchester. French Valley is bordered by Lake Skinner.
Copyright ©2021  WeatherCurrents. All rights reserved. - Submit questions and comments - Privacy Policy

This page automatically refreshes every 10 minutes.